Bojnik Airport

RS-0002 · Zentralserbien, Serbia

METAR-Geschichte RS-0002 · Bojnik Airport

Unten siehst du die METARs der letzten paar Tage. Wähle ein Jahr, um ältere METARs ab dem Jahr 2007 zu durchsuchen.

21. Mai 2024

Uhrzeit Code Wetter Temp. Sichtweite Wolkendecke Wind METAR/SPECI
05:00
V
19 °C 10 km+ 4.000 ft 100° 100° 13 kt METAR LYNI 210300Z 10013KT 9999 BKN040 19/14 Q1013 NOSIG
04:30
V
19 °C 10 km+ 4.000 ft 100° 100° 13 kt METAR LYNI 210230Z 10013KT 9999 BKN040 19/14 Q1013 NOSIG
04:00
V
19 °C 10 km+ 4.000 ft 100° 100° 14 kt METAR LYNI 210200Z 10014KT 9999 BKN040 19/14 Q1013 NOSIG
03:30
V
18 °C 10 km+ 4.000 ft 100° 100° 13 kt METAR LYNI 210130Z 10013KT 9999 BKN040 18/14 Q1013 NOSIG
03:00
V
18 °C 10 km+ - 100° 100° 13 kt METAR LYNI 210100Z 10013KT 9999 SCT040 18/14 Q1013 NOSIG
02:30
V
18 °C 10 km+ - 100° 100° 13 kt METAR LYNI 210030Z 10013KT CAVOK 18/14 Q1013 NOSIG
02:00
V
18 °C 10 km+ - 100° 100° 16 kt METAR LYNI 210000Z 10016KT CAVOK 18/14 Q1013 NOSIG
01:30
V
18 °C 10 km+ - 100° 100° 15 kt METAR LYNI 202330Z 10015KT CAVOK 18/14 Q1014 NOSIG
01:00
V
19 °C 10 km+ - 090° 090° 14 kt METAR LYNI 202300Z 09014KT 9999 FEW040 19/14 Q1014 NOSIG
00:30
V
19 °C 10 km+ - 090° 090° 16 kt METAR LYNI 202230Z 09016KT 070V130 9999 SCT040 19/14 Q1014 NOSIG
00:00
V
19 °C 10 km+ - 100° 100° 14 kt METAR LYNI 202200Z 10014KT 9999 SCT043 19/14 Q1014 NOSIG

20. Mai 2024

Uhrzeit Code Wetter Temp. Sichtweite Wolkendecke Wind METAR/SPECI
23:30
V
19 °C 10 km+ - 090° 090° 13 kt METAR LYNI 202130Z 09013KT 9999 SCT047 19/15 Q1014 NOSIG
23:00
V
19 °C 10 km+ - 090° 090° 13 kt METAR LYNI 202100Z 09013KT 9999 SCT050 19/15 Q1014 NOSIG
22:30
V
20 °C 10 km+ - 080° 080° 12 kt METAR LYNI 202030Z 08012KT 9999 FEW050 20/15 Q1014 NOSIG
22:00
V
20 °C 10 km+ - 090° 090° 9 kt METAR LYNI 202000Z 09009KT CAVOK 20/15 Q1014 NOSIG
21:30
V
20 °C 10 km+ - 080° 080° 10 kt METAR LYNI 201930Z 08010KT CAVOK 20/16 Q1013 NOSIG
21:00
V
21 °C 10 km+ - 070° 070° 6 kt METAR LYNI 201900Z 07006KT CAVOK 21/16 Q1013 NOSIG
20:30
V
21 °C 10 km+ - 070° 070° 9 kt METAR LYNI 201830Z 07009KT 9999 FEW040 21/16 Q1013 NOSIG
20:00
V
21 °C 10 km+ - 060° 060° 8 kt METAR LYNI 201800Z 06008KT CAVOK 21/16 Q1013 NOSIG
19:30
V
22 °C 10 km+ - 060° 060° 9 kt METAR LYNI 201730Z 06009KT 020V080 CAVOK 22/16 Q1013 NOSIG
19:00
V
23 °C 10 km+ - 060° 060° 7 kt METAR LYNI 201700Z 06007KT 9999 FEW040 23/17 Q1013 NOSIG
18:30
V
23 °C 10 km+ - 060° 060° 7 kt METAR LYNI 201630Z 06007KT 020V110 9999 FEW033 23/17 Q1012 NOSIG
18:00
V
24 °C 10 km+ - 060° 060° 8 kt METAR LYNI 201600Z 06008KT 020V090 9999 FEW033 24/17 Q1012 NOSIG
17:30
V
24 °C 10 km+ - 060° 060° 8 kt METAR LYNI 201530Z 06008KT 020V110 9999 FEW035 24/17 Q1013 NOSIG
17:00
V
24 °C 10 km+ - 070° 070° 8 kt METAR LYNI 201500Z 07008KT 040V110 9999 FEW035 24/17 Q1013 NOSIG
16:30
V
25 °C 10 km+ - 090° 090° 8 kt METAR LYNI 201430Z 09008KT 050V120 9999 FEW035 25/17 Q1013 NOSIG
16:00
V
24 °C 10 km+ - 080° 080° 9 kt METAR LYNI 201400Z 08009KT 050V110 9999 FEW040 24/17 Q1013 NOSIG
15:30
V
25 °C 10 km+ - 070° 070° 7 kt METAR LYNI 201330Z 07007KT 030V120 9999 FEW040 25/17 Q1013 NOSIG
15:00
V
25 °C 10 km+ - 070° 070° 6 kt METAR LYNI 201300Z 07006KT 020V110 9999 FEW040 25/17 Q1013 NOSIG
14:30
V
24 °C 10 km+ - 120° 120° 3 kt METAR LYNI 201230Z 12003KT 040V200 9999 FEW040 24/17 Q1014 NOSIG
14:00
V
25 °C 10 km+ - 060° 060° 5 - 17 kt METAR LYNI 201200Z 06005G17KT 9999 FEW037 25/16 Q1014 NOSIG
13:30
V
24 °C 10 km+ - Var Var 4 kt METAR LYNI 201130Z VRB04KT 9999 FEW037 SCT055 24/17 Q1014 NOSIG
13:00
V
24 °C 10 km+ 5.500 ft 090° 090° 6 kt METAR LYNI 201100Z 09006KT 060V150 9999 FEW037 BKN055 24/16 Q1014 NOSIG
12:30
V
23 °C 10 km+ - 100° 100° 9 kt METAR LYNI 201030Z 10009KT 060V140 9999 FEW030 23/16 Q1014 NOSIG
12:00
V
22 °C 10 km+ - 100° 100° 10 kt METAR LYNI 201000Z 10010KT 070V140 9999 FEW030 22/16 Q1014 NOSIG
11:30
V
21 °C 10 km+ - 100° 100° 7 kt METAR LYNI 200930Z 10007KT 060V140 9999 FEW025 SCT050 21/17 Q1014 NOSIG
11:00
V
20 °C 10 km+ - 120° 120° 6 kt METAR LYNI 200900Z 12006KT 080V170 9999 FEW020 SCT050 20/16 Q1014 NOSIG
10:30
V
19 °C 10 km+ - 100° 100° 7 kt METAR LYNI 200830Z 10007KT 060V140 9999 FEW015 SCT060 19/16 Q1014 NOSIG
10:00
V
19 °C 10 km+ - 110° 110° 7 kt METAR LYNI 200800Z 11007KT 070V150 9999 FEW010 SCT060 19/16 Q1014 NOSIG
09:30
V
18 °C 10 km+ - 110° 110° 5 kt METAR LYNI 200730Z 11005KT 080V140 9999 FEW010 SCT060 18/16 Q1014 NOSIG
09:00
V
18 °C 10 km+ - 090° 090° 4 kt METAR LYNI 200700Z 09004KT 060V120 9999 FEW007 SCT020 18/16 Q1014 NOSIG
08:30
V
17 °C 10 km+ - 120° 120° 7 kt METAR LYNI 200630Z 12007KT 9999 FEW010 SCT060 17/15 Q1014 NOSIG
08:00
V
16 °C 10 km+ - 110° 110° 5 kt METAR LYNI 200600Z 11005KT 9999 FEW005 SCT060 16/15 Q1014 NOSIG
07:30
V
16 °C 10 km+ - 100° 100° 9 kt METAR LYNI 200530Z 10009KT 9999 -RA FEW005 SCT060 16/15 Q1014 NOSIG
07:00
V
16 °C 10 km+ - 110° 110° 5 kt METAR LYNI 200500Z 11005KT 080V140 9999 -RA FEW020 SCT037 16/15 Q1014 RERA NOSIG
06:30
V
16 °C 10 km+ - 050° 050° 5 kt METAR LYNI 200430Z 05005KT 350V090 9999 RA FEW005 SCT027 16/15 Q1014 BECMG NSW
06:00
V
16 °C 10 km+ - 080° 080° 7 kt METAR LYNI 200400Z 08007KT 060V140 9999 -RA FEW004 SCT025 16/15 Q1014 NOSIG
05:30
V
16 °C 10 km+ - 070° 070° 5 kt METAR LYNI 200330Z 07005KT 320V110 9999 -RA FEW007 SCT033 16/15 Q1013 TEMPO 4000 SHRA SCT007 SCT030TCU BKN040
05:00
V
16 °C 10 km+ - 070° 070° 6 kt METAR LYNI 200300Z 07006KT 9999 -RA FEW007 SCT033 16/16 Q1013 TEMPO 4000 SHRA SCT007 SCT030TCU BKN040
04:30
V
16 °C 10 km+ - 080° 080° 9 kt METAR LYNI 200230Z 08009KT 9999 -SHRA FEW030TCU SCT040 16/16 Q1013 RETSRA TEMPO 4000 TSRA SCT030CB BKN040
04:00
V
16 °C 8 km - 310° 310° 6 kt METAR LYNI 200200Z 31006KT 8000 SHRA SCT033TCU SCT040 16/16 Q1014 TEMPO 4000 TSRA SCT030CB BKN040
03:30
V
17 °C 10 km+ - 330° 330° 5 kt METAR LYNI 200130Z 33005KT 300V010 9999 -SHRA FEW033TCU SCT040 17/15 Q1014 TEMPO 4000 TSRA SCT030CB BKN040
03:00
V
18 °C 10 km+ - Var Var 3 kt METAR LYNI 200100Z VRB03KT 9999 SCT040 18/15 Q1013 TEMPO 4000 SHRA SCT030TCU BKN040
02:30
V
18 °C 10 km+ - 110° 110° 5 kt METAR LYNI 200030Z 11005KT 080V140 9999 SCT040 18/15 Q1013 NOSIG
02:00
V
18 °C 10 km+ - 070° 070° 9 kt METAR LYNI 200000Z 07009KT 9999 SCT040 18/15 Q1013 TEMPO 4000 SHRA SCT030TCU BKN040
01:30
V
18 °C 10 km+ 4.000 ft 090° 090° 7 kt METAR LYNI 192330Z 09007KT 060V120 9999 BKN040 18/15 Q1013 TEMPO 4000 SHRA SCT030TCU BKN040
01:00
V
18 °C 10 km+ - 080° 080° 8 kt METAR LYNI 192300Z 08008KT 040V120 9999 FEW040 18/15 Q1013 NOSIG
00:30
V
18 °C 10 km+ - 090° 090° 8 kt METAR LYNI 192230Z 09008KT CAVOK 18/14 Q1013 NOSIG
00:00
V
18 °C 10 km+ - 090° 090° 11 kt METAR LYNI 192200Z 09011KT CAVOK 18/14 Q1013 NOSIG

19. Mai 2024

Uhrzeit Code Wetter Temp. Sichtweite Wolkendecke Wind METAR/SPECI
23:30
V
19 °C 10 km+ - 090° 090° 11 kt METAR LYNI 192130Z 09011KT CAVOK 19/14 Q1013 NOSIG
23:00
V
19 °C 10 km+ - 090° 090° 11 kt METAR LYNI 192100Z 09011KT CAVOK 19/14 Q1013 NOSIG
22:30
V
19 °C 10 km+ - 090° 090° 11 kt METAR LYNI 192030Z 09011KT CAVOK 19/14 Q1013 NOSIG
22:00
V
19 °C 10 km+ - 090° 090° 11 kt METAR LYNI 192000Z 09011KT CAVOK 19/15 Q1013 NOSIG
21:30
V
19 °C 10 km+ - 090° 090° 10 kt METAR LYNI 191930Z 09010KT CAVOK 19/15 Q1013 NOSIG
21:00
V
20 °C 10 km+ - 090° 090° 10 kt METAR LYNI 191900Z 09010KT CAVOK 20/15 Q1013 NOSIG
20:30
V
20 °C 10 km+ - 090° 090° 9 kt METAR LYNI 191830Z 09009KT CAVOK 20/16 Q1012 NOSIG
20:00
V
20 °C 10 km+ - 090° 090° 9 kt METAR LYNI 191800Z 09009KT CAVOK 20/16 Q1012 NOSIG
19:30
V
21 °C 10 km+ - 080° 080° 9 kt METAR LYNI 191730Z 08009KT CAVOK 21/16 Q1012 NOSIG
19:00
V
22 °C 10 km+ - 080° 080° 9 kt METAR LYNI 191700Z 08009KT 9999 FEW047 22/16 Q1012 NOSIG
18:30
V
23 °C 10 km+ - 080° 080° 9 kt METAR LYNI 191630Z 08009KT 050V120 9999 FEW047 23/16 Q1012 NOSIG
18:00
V
23 °C 10 km+ - 070° 070° 11 kt METAR LYNI 191600Z 07011KT 040V110 9999 FEW047 23/17 Q1012 NOSIG
17:30
V
23 °C 10 km+ - 070° 070° 10 kt METAR LYNI 191530Z 07010KT 040V110 9999 FEW040 23/17 Q1012 NOSIG
17:00
V
24 °C 10 km+ - 080° 080° 11 kt METAR LYNI 191500Z 08011KT 9999 FEW040 24/17 Q1013 NOSIG
16:30
V
23 °C 10 km+ - 080° 080° 10 kt METAR LYNI 191430Z 08010KT 9999 FEW040 23/17 Q1013 NOSIG
16:00
V
24 °C 10 km+ - 080° 080° 10 kt METAR LYNI 191400Z 08010KT 050V110 9999 FEW040 24/17 Q1013 NOSIG
15:30
V
23 °C 10 km+ - 070° 070° 9 kt METAR LYNI 191330Z 07009KT 030V100 9999 SCT033 23/17 Q1014 NOSIG
15:00
V
23 °C 10 km+ - 050° 050° 10 kt METAR LYNI 191300Z 05010KT 020V080 9999 SCT033 23/16 Q1014 NOSIG
14:30
V
24 °C 10 km+ - 070° 070° 9 kt METAR LYNI 191230Z 07009KT 030V120 9999 SCT030 24/17 Q1014 NOSIG
14:00
V
24 °C 10 km+ - Var Var 5 kt METAR LYNI 191200Z VRB05KT 9999 SCT030 24/17 Q1014 NOSIG
13:30
V
23 °C 10 km+ - 080° 080° 5 kt METAR LYNI 191130Z 08005KT 030V140 9999 SCT030 23/17 Q1014 NOSIG
13:00
V
23 °C 10 km+ - 030° 030° 5 kt METAR LYNI 191100Z 03005KT 340V110 9999 SCT027 23/17 Q1014 NOSIG
12:30
V
23 °C 10 km+ - 090° 090° 6 kt METAR LYNI 191030Z 09006KT 020V140 9999 SCT027 23/17 Q1014 NOSIG
12:00
V
22 °C 10 km+ - 090° 090° 4 kt METAR LYNI 191000Z 09004KT 360V160 9999 FEW017 SCT025 22/17 Q1015 NOSIG
11:30
V
22 °C 10 km+ - 060° 060° 7 kt METAR LYNI 190930Z 06007KT 020V110 9999 FEW017 SCT025 22/17 Q1015 NOSIG
11:00
V
21 °C 10 km+ - 030° 030° 6 kt METAR LYNI 190900Z 03006KT 360V080 9999 FEW017 SCT025 21/17 Q1015 NOSIG
10:30
M
21 °C 10 km+ 2.300 ft Var Var 2 kt METAR LYNI 190830Z VRB02KT 9999 FEW015 BKN023 21/17 Q1015 NOSIG
10:00
M
20 °C 10 km+ 2.300 ft 110° 110° 4 kt METAR LYNI 190800Z 11004KT 070V140 9999 SCT015 BKN023 20/17 Q1015 NOSIG
09:30
M
20 °C 10 km+ 2.500 ft 090° 090° 5 kt METAR LYNI 190730Z 09005KT 030V120 9999 FEW010 BKN025 20/16 Q1014 NOSIG
09:00
M
19 °C 10 km+ 2.500 ft Var Var 1 kt METAR LYNI 190700Z VRB01KT 9999 FEW008 BKN025 19/17 Q1015 NOSIG
08:30
V
18 °C 10 km+ - 300° 300° 3 kt METAR LYNI 190630Z 30003KT 250V340 9999 FEW008 SCT027 18/18 Q1015 NOSIG
08:00
V
18 °C 10 km+ - Var Var 1 kt METAR LYNI 190600Z VRB01KT 9999 FEW007 SCT040 18/16 Q1014 NOSIG
07:30
V
18 °C 10 km+ - 360° 360° 0 kt METAR LYNI 190530Z 00000KT 9999 FEW004 SCT040 18/17 Q1014 NOSIG
07:00
V
17 °C 10 km+ 4.000 ft Var Var 1 kt METAR LYNI 190500Z VRB01KT 9999 FEW006 BKN040 17/17 Q1014 NOSIG
06:30
V
17 °C 10 km+ 3.700 ft 360° 360° 0 kt METAR LYNI 190430Z 00000KT 9999 -RA FEW006 BKN037 17/17 Q1014 RERA NOSIG
06:00
V
16 °C 8 km 3.700 ft 330° 330° 2 kt METAR LYNI 190400Z 33002KT 8000 RA FEW006 SCT023 BKN037 16/16 Q1014 NOSIG
05:30
V
16 °C 8 km 3.700 ft 320° 320° 2 kt METAR LYNI 190330Z 32002KT 8000 -RA FEW009 SCT023 BKN037 16/16 Q1014 RERA NOSIG
05:00
V
16 °C 8 km 3.300 ft 330° 330° 4 kt METAR LYNI 190300Z 33004KT 300V020 8000 RA FEW012 BKN033 16/16 Q1014 NOSIG
04:30
V
17 °C 8 km 3.700 ft 330° 330° 4 kt METAR LYNI 190230Z 33004KT 8000 RA FEW015 BKN037 17/17 Q1014 RESHRA NOSIG
04:00
V
17 °C 8 km 4.000 ft 340° 340° 3 kt METAR LYNI 190200Z 34003KT 8000 SHRA FEW015 SCT027TCU BKN040 17/16 Q1014 NOSIG
03:30
M
17 °C 7 km 4.000 ft 330° 330° 3 kt METAR LYNI 190130Z 33003KT 7000 SHRA SCT030TCU BKN040 17/16 Q1014 TEMPO 4000
03:00
V
17 °C 10 km+ 4.000 ft 290° 290° 3 kt METAR LYNI 190100Z 29003KT 9999 RA BKN040 17/16 Q1014 NOSIG
02:30
V
17 °C 10 km+ - 090° 090° 4 kt METAR LYNI 190030Z 09004KT 070V130 9999 -RA SCT043 17/16 Q1014 NOSIG
02:00
V
17 °C 10 km+ - Var Var 1 kt METAR LYNI 190000Z VRB01KT 9999 -RA SCT043 17/16 Q1014 NOSIG
01:30
V
17 °C 10 km+ - 250° 250° 3 kt METAR LYNI 182330Z 25003KT 9999 FEW050 17/16 Q1013 NOSIG
01:00
V
18 °C 10 km+ - 360° 360° 0 kt METAR LYNI 182300Z 00000KT 9999 FEW050 18/16 Q1013 NOSIG
00:30
V
18 °C 10 km+ - Var Var 2 kt METAR LYNI 182230Z VRB02KT 9999 -RA FEW050 18/16 Q1014 NOSIG
00:00
V
18 °C 10 km+ - Var Var 1 kt METAR LYNI 182200Z VRB01KT 9999 -RA FEW050 18/15 Q1014 NOSIG

18. Mai 2024

Uhrzeit Code Wetter Temp. Sichtweite Wolkendecke Wind METAR/SPECI
23:30
V
18 °C 10 km+ - Var Var 2 kt METAR LYNI 182130Z VRB02KT CAVOK 18/15 Q1014 NOSIG
23:00
V
18 °C 10 km+ - Var Var 2 kt METAR LYNI 182100Z VRB02KT CAVOK 18/14 Q1014 NOSIG
22:30
V
19 °C 10 km+ - Var Var 1 kt METAR LYNI 182030Z VRB01KT CAVOK 19/14 Q1013 NOSIG
22:00
V
21 °C 10 km+ - Var Var 1 kt METAR LYNI 182000Z VRB01KT CAVOK 21/13 Q1013 NOSIG
21:30
V
21 °C 10 km+ - 070° 070° 3 kt METAR LYNI 181930Z 07003KT 010V110 CAVOK 21/13 Q1013 NOSIG
21:00
V
21 °C 10 km+ - Var Var 2 kt METAR LYNI 181900Z VRB02KT CAVOK 21/14 Q1013 NOSIG
20:30
V
22 °C 10 km+ - 070° 070° 6 kt METAR LYNI 181830Z 07006KT 040V100 CAVOK 22/13 Q1013 NOSIG
20:00
V
22 °C 10 km+ - 090° 090° 4 kt METAR LYNI 181800Z 09004KT 060V120 CAVOK 22/14 Q1013 NOSIG
19:30
V
23 °C 10 km+ - 090° 090° 4 kt METAR LYNI 181730Z 09004KT 060V120 CAVOK 23/13 Q1013 NOSIG
19:00
V
24 °C 10 km+ - 050° 050° 6 kt METAR LYNI 181700Z 05006KT 020V090 CAVOK 24/12 Q1013 NOSIG
18:30
V
25 °C 10 km+ - 040° 040° 6 kt METAR LYNI 181630Z 04006KT 010V070 CAVOK 25/13 Q1013 NOSIG
18:00
V
25 °C 10 km+ - Var Var 2 kt METAR LYNI 181600Z VRB02KT CAVOK 25/14 Q1013 NOSIG
17:30
V
27 °C 10 km+ - Var Var 2 kt METAR LYNI 181530Z VRB02KT CAVOK 27/12 Q1013 NOSIG
17:00
V
27 °C 10 km+ - Var Var 1 kt METAR LYNI 181500Z VRB01KT CAVOK 27/12 Q1013 NOSIG
16:30
V
27 °C 10 km+ - 360° 360° 0 kt METAR LYNI 181430Z 00000KT 9999 FEW050 27/13 Q1014 NOSIG
16:00
V
27 °C 10 km+ - Var Var 1 kt METAR LYNI 181400Z VRB01KT 9999 FEW050 27/11 Q1014 NOSIG
15:30
V
27 °C 10 km+ - Var Var 3 kt METAR LYNI 181330Z VRB03KT 9999 FEW050 27/11 Q1015 NOSIG
15:00
V
27 °C 10 km+ - Var Var 2 kt METAR LYNI 181300Z VRB02KT 9999 FEW050 27/10 Q1015 NOSIG
14:30
V
26 °C 10 km+ - Var Var 1 kt METAR LYNI 181230Z VRB01KT 9999 FEW050 26/11 Q1016 NOSIG
14:00
V
26 °C 10 km+ - Var Var 2 kt METAR LYNI 181200Z VRB02KT 9999 FEW050 26/11 Q1016 NOSIG
13:30
V
26 °C 10 km+ - Var Var 2 kt METAR LYNI 181130Z VRB02KT 9999 FEW050 26/13 Q1016 NOSIG
13:00
V
25 °C 10 km+ - Var Var 4 kt METAR LYNI 181100Z VRB04KT 9999 FEW050 25/13 Q1017 NOSIG
12:30
V
24 °C 10 km+ - 260° 260° 1 kt METAR LYNI 181030Z 26001KT 9999 FEW047 24/13 Q1017 NOSIG
12:00
V
24 °C 10 km+ - 200° 200° 2 kt METAR LYNI 181000Z 20002KT 9999 FEW040 24/13 Q1017 NOSIG
11:30
V
23 °C 10 km+ - 360° 360° 0 kt METAR LYNI 180930Z 00000KT 9999 FEW040 23/13 Q1018 NOSIG
11:00
V
22 °C 10 km+ - Var Var 1 kt METAR LYNI 180900Z VRB01KT 9999 FEW033 22/13 Q1018 NOSIG
10:30
V
21 °C 10 km+ - Var Var 3 kt METAR LYNI 180830Z VRB03KT 9999 FEW033 21/15 Q1018 NOSIG
10:00
V
20 °C 10 km+ - Var Var 1 kt METAR LYNI 180800Z VRB01KT 9999 FEW030 20/14 Q1018 NOSIG
09:30
V
19 °C 10 km+ - Var Var 2 kt METAR LYNI 180730Z VRB02KT 9999 FEW030 19/14 Q1018 NOSIG
09:00
V
19 °C 10 km+ - 100° 100° 3 kt METAR LYNI 180700Z 10003KT 020V150 CAVOK 19/13 Q1018 NOSIG
08:30
V
18 °C 10 km+ - Var Var 2 kt METAR LYNI 180630Z VRB02KT CAVOK 18/13 Q1018 NOSIG
08:00
V
16 °C 10 km+ - 360° 360° 0 kt METAR LYNI 180600Z 00000KT CAVOK 16/13 Q1018 NOSIG
Eine Änderung melden